Time;durP1;ratioP1;P1;durP2;ratioP2;P2;SDS_P1;SDS_P2;PMS_P1;PMS_P2;Temp;Humidity;BMP_temperature;BMP_pressure;BME280_temperature;BME280_humidity;BME280_pressure;Samples;Min_cycle;Max_cycle;Signal;HPM_P1;HPM_P2
2022/03/02 00:00:51;;;;;;;18.63;12.97;;;;;;;3.87;75.03;100130.09;5014697;28;20303;-76
2022/03/02 00:03:17;;;;;;;20.43;14.20;;;;;;;3.98;75.45;100135.22;5014997;28;20194;-76
2022/03/02 00:05:45;;;;;;;19.43;14.80;;;;;;;4.01;74.39;100137.53;5015542;28;20436;-76
2022/03/02 00:08:12;;;;;;;20.73;15.07;;;;;;;4.11;75.71;100143.63;5014788;28;20194;-76
2022/03/02 00:10:39;;;;;;;19.57;13.40;;;;;;;4.21;75.49;100139.19;5015040;28;20237;-76
2022/03/02 00:13:06;;;;;;;24.00;14.33;;;;;;;4.30;74.45;100134.91;5015067;28;20193;-76
2022/03/02 00:15:32;;;;;;;15.23;13.60;;;;;;;4.37;74.99;100133.38;5015248;28;20198;-75
2022/03/02 00:17:59;;;;;;;19.47;13.87;;;;;;;4.39;73.41;100137.53;5014792;28;20253;-76
2022/03/02 00:20:26;;;;;;;19.03;13.77;;;;;;;4.39;73.46;100131.41;5014877;28;20229;-76
2022/03/02 00:22:55;;;;;;;15.63;13.87;;;;;;;4.38;74.07;100122.69;5014980;28;20197;-75
2022/03/02 00:25:22;;;;;;;14.27;12.77;;;;;;;4.30;73.39;100127.81;5015324;28;20230;-75
2022/03/02 00:27:49;;;;;;;16.70;13.30;;;;;;;4.25;73.36;100124.78;5014890;28;20190;-75
2022/03/02 00:30:16;;;;;;;18.23;12.80;;;;;;;4.31;73.60;100126.88;5014284;28;20646;-75
2022/03/02 00:32:42;;;;;;;19.13;13.60;;;;;;;4.42;73.60;100121.44;5014024;28;20198;-76
2022/03/02 00:35:09;;;;;;;16.53;12.20;;;;;;;4.52;73.75;100117.00;5012154;28;20823;-77
2022/03/02 00:37:36;;;;;;;15.40;13.40;;;;;;;4.49;72.74;100122.53;5014375;28;20194;-77
2022/03/02 00:40:05;;;;;;;16.37;13.00;;;;;;;4.43;72.13;100112.59;5013348;28;20225;-77
2022/03/02 00:42:32;;;;;;;15.33;12.80;;;;;;;4.52;72.81;100111.75;5014432;28;20244;-76
2022/03/02 00:44:58;;;;;;;12.47;11.27;;;;;;;4.42;72.12;100110.91;5014590;28;20256;-75
2022/03/02 00:47:25;;;;;;;13.27;12.07;;;;;;;4.35;72.89;100111.63;5014508;28;20248;-75
2022/03/02 00:49:53;;;;;;;12.57;11.10;;;;;;;4.32;73.53;100102.22;5014583;28;20197;-75
2022/03/02 00:52:20;;;;;;;15.07;10.63;;;;;;;4.33;73.84;100103.88;5014382;28;20194;-76
2022/03/02 00:54:47;;;;;;;15.20;11.53;;;;;;;4.22;73.57;100100.59;5013959;28;20194;-76
2022/03/02 00:57:15;;;;;;;11.73;10.63;;;;;;;4.03;74.10;100097.97;5013969;28;20190;-75
2022/03/02 00:59:41;;;;;;;13.57;10.93;;;;;;;3.93;75.51;100097.16;5013670;28;20252;-76
2022/03/02 01:02:08;;;;;;;15.17;10.57;;;;;;;3.84;76.47;100085.69;5013695;28;20193;-77
2022/03/02 01:04:35;;;;;;;11.80;10.60;;;;;;;3.88;76.56;100084.44;5013867;28;20197;-77
2022/03/02 01:07:01;;;;;;;13.07;11.67;;;;;;;3.93;77.15;100091.91;5013588;28;20256;-76
2022/03/02 01:09:28;;;;;;;11.20;10.07;;;;;;;3.89;76.53;100082.66;5013383;28;20194;-75
2022/03/02 01:11:55;;;;;;;10.83;9.93;;;;;;;3.86;76.41;100083.75;5013434;28;20962;-76
2022/03/02 01:14:23;;;;;;;11.13;9.97;;;;;;;3.80;76.28;100083.50;5013531;28;20429;-76
2022/03/02 01:16:50;;;;;;;12.33;11.00;;;;;;;3.65;76.52;100083.06;5013324;28;20631;-76
2022/03/02 01:19:17;;;;;;;13.00;11.70;;;;;;;3.65;77.51;100072.56;5013376;28;20661;-77
2022/03/02 01:21:44;;;;;;;12.83;10.87;;;;;;;3.72;77.54;100076.28;5013156;28;20484;-77
2022/03/02 01:24:11;;;;;;;10.97;9.97;;;;;;;3.71;76.35;100066.75;5013345;28;20603;-76
2022/03/02 01:26:38;;;;;;;11.80;10.00;;;;;;;3.71;77.08;100072.00;5013165;28;20579;-77
2022/03/02 01:29:05;;;;;;;12.10;10.63;;;;;;;3.73;76.50;100064.81;5013266;28;20948;-76
2022/03/02 01:31:33;;;;;;;13.13;10.93;;;;;;;3.73;76.85;100064.81;5013076;28;20739;-76
2022/03/02 01:34:00;;;;;;;12.47;10.80;;;;;;;3.77;76.69;100060.09;5013014;28;21018;-77
2022/03/02 01:36:27;;;;;;;12.63;11.20;;;;;;;3.77;77.12;100058.31;5013342;28;20194;-77
2022/03/02 01:38:53;;;;;;;12.40;11.10;;;;;;;3.71;77.08;100050.97;5013352;28;20198;-77
2022/03/02 01:41:23;;;;;;;12.17;10.60;;;;;;;3.68;76.19;100056.50;5012857;28;20713;-76
2022/03/02 01:43:52;;;;;;;11.60;10.50;;;;;;;3.71;76.57;100060.66;5013134;28;20220;-76
2022/03/02 01:46:20;;;;;;;11.77;10.57;;;;;;;3.71;77.23;100055.41;5012599;28;20441;-77
2022/03/02 01:48:48;;;;;;;12.37;11.07;;;;;;;3.73;77.45;100056.09;5011974;28;20198;-77
2022/03/02 01:51:16;;;;;;;16.67;11.07;;;;;;;3.73;76.62;100056.94;5012875;28;20432;-77
2022/03/02 01:53:43;;;;;;;11.67;10.47;;;;;;;3.77;76.70;100054.84;5013030;28;20198;-77
2022/03/02 01:56:10;;;;;;;12.03;10.87;;;;;;;3.77;75.53;100050.44;5012867;28;20198;-75
2022/03/02 01:58:37;;;;;;;12.30;10.67;;;;;;;3.76;75.69;100048.75;5012924;28;20256;-75
2022/03/02 02:01:05;;;;;;;12.33;11.23;;;;;;;3.70;76.18;100043.25;5012768;28;20229;-75
2022/03/02 02:03:33;;;;;;;13.30;11.17;;;;;;;3.73;76.49;100043.81;5012414;28;20193;-75
2022/03/02 02:06:01;;;;;;;12.10;11.00;;;;;;;3.64;76.69;100034.13;5012495;28;20197;-75
2022/03/02 02:08:28;;;;;;;10.77;9.83;;;;;;;3.65;76.77;100033.16;5012506;28;20437;-75
2022/03/02 02:10:57;;;;;;;12.27;11.03;;;;;;;3.66;75.86;100026.94;5012515;28;20193;-75
2022/03/02 02:13:23;;;;;;;12.17;10.97;;;;;;;3.65;75.84;100022.66;5012059;28;20194;-75
2022/03/02 02:15:50;;;;;;;12.17;10.97;;;;;;;3.54;76.68;100029.84;5012771;28;20233;-75
2022/03/02 02:18:17;;;;;;;11.57;10.47;;;;;;;3.42;77.00;100021.28;5012525;28;20444;-75
2022/03/02 02:20:45;;;;;;;14.33;11.50;;;;;;;3.41;77.20;100022.25;5012130;28;20283;-75
2022/03/02 02:23:13;;;;;;;12.37;11.20;;;;;;;3.42;77.33;100013.41;5012725;28;20215;-75
2022/03/02 02:25:40;;;;;;;14.03;11.53;;;;;;;3.44;78.00;100018.50;5012764;28;20469;-75
2022/03/02 02:28:09;;;;;;;12.60;11.47;;;;;;;3.44;78.66;100018.50;5012127;28;20500;-75
2022/03/02 02:30:35;;;;;;;12.60;11.33;;;;;;;3.34;78.11;100013.25;5012095;28;20515;-75
2022/03/02 02:33:02;;;;;;;17.00;10.60;;;;;;;3.22;78.64;100016.13;5012414;28;20502;-74
2022/03/02 02:35:29;;;;;;;16.10;12.07;;;;;;;3.20;79.61;100018.09;5011997;28;20547;-76
2022/03/02 02:37:59;;;;;;;12.70;11.43;;;;;;;3.26;79.92;100020.16;5011913;28;20580;-75
2022/03/02 02:40:28;;;;;;;14.60;11.27;;;;;;;3.28;79.78;100019.06;5011721;28;21015;-75
2022/03/02 02:42:54;;;;;;;12.93;11.07;;;;;;;3.32;79.68;100020.44;5012073;28;20440;-76
2022/03/02 02:45:24;;;;;;;16.63;12.00;;;;;;;3.34;79.68;100013.25;5012085;28;20256;-75
2022/03/02 02:47:54;;;;;;;14.37;10.80;;;;;;;3.34;79.32;100013.25;5011736;28;21014;-75
2022/03/02 02:50:23;;;;;;;15.47;12.37;;;;;;;3.23;78.96;100012.56;5011592;28;20448;-74
2022/03/02 02:52:52;;;;;;;16.90;10.77;;;;;;;3.09;79.82;100005.06;5011689;28;20495;-75
2022/03/02 02:55:22;;;;;;;14.57;11.53;;;;;;;2.96;80.17;100004.50;5011588;28;20728;-75
2022/03/02 02:57:48;;;;;;;16.27;12.07;;;;;;;2.88;81.41;99997.31;5011084;28;20472;-76
2022/03/02 03:00:17;;;;;;;13.57;11.67;;;;;;;2.74;80.85;100000.31;5011495;28;20201;-75
2022/03/02 03:02:46;;;;;;;12.33;11.13;;;;;;;2.57;82.04;99997.53;5011974;28;20523;-75
2022/03/02 03:05:15;;;;;;;17.93;12.60;;;;;;;2.51;82.29;99995.41;5011559;28;20444;-75
2022/03/02 03:07:43;;;;;;;13.30;11.63;;;;;;;2.52;82.59;100005.78;5011616;28;20441;-75
2022/03/02 03:10:11;;;;;;;12.27;10.80;;;;;;;2.59;83.45;100006.91;5011836;28;20499;-75
2022/03/02 03:12:42;;;;;;;16.87;11.33;;;;;;;2.65;82.90;100001.13;5011941;28;20444;-75
2022/03/02 03:15:10;;;;;;;13.47;11.63;;;;;;;2.69;82.88;100006.94;5011699;28;20432;-76
2022/03/02 03:17:37;;;;;;;15.67;12.73;;;;;;;2.65;82.18;100002.94;5011529;28;20447;-75
2022/03/02 03:20:05;;;;;;;14.87;11.60;;;;;;;2.61;82.96;99999.72;5011787;28;20495;-76
2022/03/02 03:22:32;;;;;;;12.87;11.63;;;;;;;2.57;82.58;100008.81;5011619;28;20922;-76
2022/03/02 03:24:58;;;;;;;17.20;11.97;;;;;;;2.57;83.74;99998.34;5012016;28;20531;-76
2022/03/02 03:27:25;;;;;;;16.07;12.53;;;;;;;2.60;83.32;99998.06;5011672;28;20436;-75
2022/03/02 03:29:53;;;;;;;15.00;12.43;;;;;;;2.61;82.50;100002.34;5011580;28;20444;-75
2022/03/02 03:32:20;;;;;;;21.73;16.87;;;;;;;2.62;82.32;100006.63;5011665;28;20491;-76
2022/03/02 03:34:47;;;;;;;23.77;15.10;;;;;;;2.50;81.96;100004.25;5011647;28;20514;-76
2022/03/02 03:37:14;;;;;;;28.70;19.43;;;;;;;2.37;82.44;100001.84;5011407;28;20433;-76
2022/03/02 03:39:42;;;;;;;24.73;16.77;;;;;;;2.36;83.88;100008.06;5011239;28;20960;-76
2022/03/02 03:42:09;;;;;;;21.00;16.13;;;;;;;2.30;83.67;100008.59;5011459;28;21021;-76
2022/03/02 03:44:36;;;;;;;21.07;14.83;;;;;;;2.29;84.80;99999.06;5011128;28;20507;-76
2022/03/02 03:47:06;;;;;;;28.63;16.40;;;;;;;2.36;84.51;100001.97;5011698;28;20436;-77
2022/03/02 03:49:33;;;;;;;29.70;15.50;;;;;;;2.25;84.12;99992.41;5011168;28;20883;-76
2022/03/02 03:51:59;;;;;;;30.07;17.10;;;;;;;2.18;85.12;99990.47;5011420;28;20452;-76
2022/03/02 03:54:26;;;;;;;29.33;16.70;;;;;;;2.12;84.75;99991.81;5011195;28;20433;-76
2022/03/02 03:56:53;;;;;;;41.13;16.03;;;;;;;1.98;84.94;99989.53;5011235;28;20452;-76
2022/03/02 03:59:19;;;;;;;26.53;15.37;;;;;;;1.92;85.03;99990.03;5010987;28;20437;-75
2022/03/02 04:01:46;;;;;;;30.00;16.60;;;;;;;1.81;85.39;99981.44;5011105;28;20479;-75
2022/03/02 04:04:14;;;;;;;26.80;16.80;;;;;;;1.84;85.86;99986.41;5010776;28;20503;-75
2022/03/02 04:06:41;;;;;;;31.13;15.23;;;;;;;1.77;86.89;99986.13;5010582;28;20574;-75
2022/03/02 04:09:08;;;;;;;25.87;15.67;;;;;;;1.81;86.83;99991.91;5013205;28;20502;-75
2022/03/02 04:11:34;;;;;;;29.33;17.23;;;;;;;1.86;86.11;99993.19;5014661;28;20448;-77
2022/03/02 04:14:01;;;;;;;23.30;15.90;;;;;;;1.85;85.71;99986.31;5014260;28;20952;-76
2022/03/02 04:16:28;;;;;;;21.70;16.33;;;;;;;1.83;86.63;99985.59;5014643;28;20499;-76
2022/03/02 04:18:54;;;;;;;23.30;16.27;;;;;;;1.74;86.16;99986.34;5014654;28;20441;-76
2022/03/02 04:21:23;;;;;;;22.67;16.43;;;;;;;1.68;86.75;99992.13;5013992;28;21069;-75
2022/03/02 04:23:49;;;;;;;27.13;16.37;;;;;;;1.66;87.41;99988.78;5014194;28;20971;-75
2022/03/02 04:26:16;;;;;;;26.90;16.47;;;;;;;1.71;87.09;99989.22;5014568;28;20428;-75
2022/03/02 04:28:43;;;;;;;24.30;16.60;;;;;;;1.75;87.53;99974.91;5013880;28;20475;-76
2022/03/02 04:31:10;;;;;;;30.33;17.57;;;;;;;1.78;86.46;99977.28;5014059;28;20455;-76
2022/03/02 04:33:36;;;;;;;22.63;16.40;;;;;;;1.78;85.99;99979.91;5013909;28;20925;-75
2022/03/02 04:36:04;;;;;;;21.47;16.17;;;;;;;1.75;86.67;99967.06;5014092;28;20945;-75
2022/03/02 04:38:32;;;;;;;21.07;15.87;;;;;;;1.76;87.78;99973.16;5014266;28;20444;-75
2022/03/02 04:40:59;;;;;;;23.70;16.80;;;;;;;1.73;86.73;99971.63;5013948;28;20538;-74
2022/03/02 04:43:25;;;;;;;27.03;18.73;;;;;;;1.65;87.05;99974.03;5014062;28;20441;-74
2022/03/02 04:45:52;;;;;;;29.50;18.97;;;;;;;1.56;87.99;99976.59;5013517;28;20989;-74
2022/03/02 04:48:19;;;;;;;25.80;19.10;;;;;;;1.40;87.56;99971.81;5014109;28;20447;-74
2022/03/02 04:50:46;;;;;;;33.57;19.07;;;;;;;1.22;88.49;99968.06;5012985;28;20452;-74
2022/03/02 04:53:14;;;;;;;31.83;19.63;;;;;;;1.19;89.30;99973.56;5013570;28;20503;-75
2022/03/02 04:55:44;;;;;;;31.07;20.77;;;;;;;1.18;89.77;99971.88;5013977;28;20879;-75
2022/03/02 04:58:11;;;;;;;30.50;18.90;;;;;;;1.25;89.96;99967.81;5013706;28;21051;-74
2022/03/02 05:00:38;;;;;;;28.80;21.40;;;;;;;1.29;90.59;99966.63;5013151;28;20444;-75
2022/03/02 05:03:06;;;;;;;30.10;19.40;;;;;;;1.29;90.48;99958.78;5013681;28;20550;-75
2022/03/02 05:05:38;;;;;;;28.47;20.07;;;;;;;1.37;90.72;99966.81;5013589;28;20503;-80
2022/03/02 05:08:05;;;;;;;28.43;19.50;;;;;;;1.41;90.86;99965.59;5013092;28;20464;-80
2022/03/02 05:10:32;;;;;;;28.80;20.93;;;;;;;1.47;90.98;99967.69;5013414;28;20432;-81
2022/03/02 05:13:01;;;;;;;38.47;21.77;;;;;;;1.43;90.84;99966.28;5013398;28;20515;-81
2022/03/02 05:15:30;;;;;;;39.97;23.30;;;;;;;1.40;90.93;99961.34;5013025;28;20487;-80
2022/03/02 05:17:57;;;;;;;34.17;21.67;;;;;;;1.49;90.93;99965.81;5013367;28;20518;-80
2022/03/02 05:20:25;;;;;;;34.30;23.83;;;;;;;1.55;91.19;99970.50;5012608;28;20447;-81
2022/03/02 05:22:52;;;;;;;44.20;24.70;;;;;;;1.59;90.62;99966.69;5012627;28;21078;-83
2022/03/02 05:25:18;;;;;;;36.30;22.90;;;;;;;1.71;90.94;99964.84;5013423;28;20472;-83
2022/03/02 05:27:46;;;;;;;28.23;20.77;;;;;;;1.82;90.38;99962.97;5012591;28;20467;-79
2022/03/02 05:30:14;;;;;;;32.40;21.93;;;;;;;1.97;89.32;99960.84;5012700;28;20445;-82
2022/03/02 05:32:41;;;;;;;38.47;22.30;;;;;;;2.01;88.78;99957.84;5012988;28;20473;-83
2022/03/02 05:35:09;;;;;;;45.97;30.23;;;;;;;2.12;89.62;99960.38;5012241;28;21088;-81
2022/03/02 05:37:42;;;;;;;53.80;31.93;;;;;;;2.19;89.04;99956.25;5013002;28;20445;-79
2022/03/02 05:40:10;;;;;;;50.67;32.03;;;;;;;2.29;89.21;99964.97;5012388;28;20461;-75
2022/03/02 05:42:37;;;;;;;60.83;38.83;;;;;;;2.41;89.96;99960.50;5012602;28;20603;-80
2022/03/02 05:45:04;;;;;;;59.77;32.57;;;;;;;2.54;88.06;99967.16;5012801;28;20445;-80
2022/03/02 05:47:32;;;;;;;57.83;33.30;;;;;;;2.62;87.10;99969.09;5003717;28;20499;-79
2022/03/02 05:49:59;;;;;;;51.77;30.77;;;;;;;2.74;86.23;99965.41;5002050;28;20504;-79
2022/03/02 05:52:26;;;;;;;49.83;27.80;;;;;;;2.73;85.90;99964.56;5001910;28;20448;-79
2022/03/02 05:54:53;;;;;;;50.33;27.67;;;;;;;2.94;86.75;99974.97;5003337;28;20506;-79
2022/03/02 05:57:19;;;;;;;57.17;26.40;;;;;;;3.19;85.60;99974.44;5001227;28;20437;-80
2022/03/02 05:59:46;;;;;;;42.33;28.17;;;;;;;3.35;84.06;99980.78;5006348;28;20825;-78
2022/03/02 06:02:13;;;;;;;33.77;22.67;;;;;;;3.45;82.83;99984.25;5005890;28;20477;-78
2022/03/02 06:04:41;;;;;;;33.50;24.40;;;;;;;3.73;82.61;99980.75;5000785;28;20442;-82
2022/03/02 06:07:08;;;;;;;33.00;22.77;;;;;;;4.05;81.33;99985.66;5003149;28;20190;-79
2022/03/02 06:09:35;;;;;;;31.60;20.40;;;;;;;4.40;79.66;99991.06;5011774;28;20444;-77
2022/03/02 06:12:02;;;;;;;27.90;19.50;;;;;;;4.85;78.52;99987.50;5010453;28;20271;-69
2022/03/02 06:14:29;;;;;;;26.93;19.00;;;;;;;5.36;75.41;99992.16;5012585;28;20202;-70
2022/03/02 06:16:57;;;;;;;38.63;22.10;;;;;;;5.56;77.21;99983.91;5013124;28;20198;-75
2022/03/02 06:19:24;;;;;;;26.07;18.93;;;;;;;5.79;72.50;100006.19;5012771;28;20201;-73
2022/03/02 06:21:53;;;;;;;21.33;17.50;;;;;;;5.61;71.00;100002.72;5013416;28;20221;-73
2022/03/02 06:24:20;;;;;;;29.80;17.90;;;;;;;5.64;74.76;99991.09;4993322;28;20234;-73
2022/03/02 06:26:47;;;;;;;21.20;18.20;;;;;;;5.45;71.51;99992.06;4993487;28;20198;-71
2022/03/02 06:29:14;;;;;;;30.53;20.50;;;;;;;5.27;72.31;99993.88;4992952;28;20253;-70
2022/03/02 06:31:41;;;;;;;33.40;17.23;;;;;;;5.49;71.96;99992.59;4991160;28;20672;-76
2022/03/02 06:34:07;;;;;;;22.63;16.37;;;;;;;6.04;69.96;100006.41;5007976;28;20590;-69
2022/03/02 06:36:34;;;;;;;33.70;15.90;;;;;;;6.41;68.55;100007.75;4998791;28;20243;-71
2022/03/02 06:39:04;;;;;;;37.10;15.47;;;;;;;6.81;66.89;100010.59;5002845;28;20196;-70
2022/03/02 06:41:45;;;;;;;20.47;13.63;;;;;;;7.16;64.75;100010.38;5003190;28;20266;-69
2022/03/02 06:44:20;;;;;;;27.63;14.50;;;;;;;7.27;64.37;100011.88;5009775;28;20189;-72
2022/03/02 06:46:55;;;;;;;32.77;14.77;;;;;;;7.49;63.75;100003.31;5010604;28;20193;-68
2022/03/02 06:49:26;;;;;;;22.63;14.23;;;;;;;7.86;60.08;100008.94;5010495;28;20186;-66
2022/03/02 06:51:59;;;;;;;15.57;12.83;;;;;;;7.95;58.63;100014.06;5011154;28;20285;-67
2022/03/02 06:54:30;;;;;;;18.83;12.27;;;;;;;8.07;57.18;100022.47;5012580;28;20300;-67
2022/03/02 06:57:00;;;;;;;18.33;13.00;;;;;;;8.19;57.10;100019.34;5011748;28;20662;-69
2022/03/02 06:59:31;;;;;;;29.33;13.87;;;;;;;8.41;54.60;100023.13;5012419;28;20205;-71
2022/03/02 07:02:02;;;;;;;35.23;18.27;;;;;;;8.84;56.01;100017.34;5012955;28;20307;-71
2022/03/02 07:04:34;;;;;;;21.50;14.33;;;;;;;9.42;54.48;100020.34;5012117;28;20213;-71
2022/03/02 07:07:03;;;;;;;23.37;14.13;;;;;;;9.75;52.95;100021.75;5012519;28;20248;-70
2022/03/02 07:09:33;;;;;;;20.30;13.07;;;;;;;9.87;51.33;100022.97;5011971;28;20194;-70
2022/03/02 07:12:00;;;;;;;19.10;12.37;;;;;;;10.30;51.40;100009.84;5012493;28;20197;-68
2022/03/02 07:14:29;;;;;;;24.10;11.23;;;;;;;9.95;46.20;100029.06;5012005;28;20201;-69
2022/03/02 07:16:57;;;;;;;61.63;10.57;;;;;;;10.13;44.62;100020.81;5012154;28;20237;-68
2022/03/02 07:19:24;;;;;;;38.83;10.27;;;;;;;9.89;42.88;100016.50;5011813;28;20200;-69
2022/03/02 07:21:52;;;;;;;18.20;9.13;;;;;;;9.86;45.10;99986.84;5011579;28;20249;-69
2022/03/02 07:24:22;;;;;;;15.13;8.80;;;;;;;9.68;42.51;99996.97;5011584;28;20233;-69
2022/03/02 07:26:53;;;;;;;20.50;9.10;;;;;;;9.21;42.84;99988.34;5011778;28;20201;-67
2022/03/02 07:29:21;;;;;;;26.00;9.10;;;;;;;9.46;42.19;99984.50;5011384;28;20550;-67
2022/03/02 07:31:51;;;;;;;19.60;10.93;;;;;;;9.00;42.96;99974.88;5010633;28;20673;-66
2022/03/02 07:34:18;;;;;;;13.70;10.57;;;;;;;8.84;44.20;99962.56;5011571;28;20201;-72
2022/03/02 07:36:45;;;;;;;17.37;10.93;;;;;;;9.03;43.99;99966.59;5011698;28;20568;-69
2022/03/02 07:39:12;;;;;;;23.80;13.00;;;;;;;9.00;44.44;99964.28;5010893;28;20252;-70
2022/03/02 07:41:39;;;;;;;15.27;8.90;;;;;;;8.70;43.74;99957.97;5012156;28;20268;-70
2022/03/02 07:44:08;;;;;;;15.63;8.63;;;;;;;8.76;43.86;99962.59;5014211;28;20266;-69
2022/03/02 07:46:34;;;;;;;16.43;11.90;;;;;;;9.19;43.17;99954.06;5015164;28;20202;-68
2022/03/02 07:49:02;;;;;;;10.97;8.53;;;;;;;9.38;42.60;99956.25;5020936;28;20225;-69
2022/03/02 07:51:30;;;;;;;15.77;10.37;;;;;;;9.08;43.05;99945.69;5034357;28;20621;-71
2022/03/02 07:54:01;;;;;;;21.93;15.33;;;;;;;9.36;41.89;99954.78;5032674;28;20205;-70
2022/03/02 07:56:29;;;;;;;55.93;31.10;;;;;;;9.69;42.23;99946.38;5024439;28;20193;-70
2022/03/02 07:59:03;;;;;;;17.17;11.63;;;;;;;10.22;42.40;99942.75;5015590;28;20244;-71
2022/03/02 08:01:34;;;;;;;14.43;10.60;;;;;;;10.45;49.38;99930.16;5015171;28;20190;-67
2022/03/02 08:04:05;;;;;;;12.17;9.47;;;;;;;11.11;45.73;99921.97;5015124;28;20217;-68
2022/03/02 08:06:33;;;;;;;19.17;10.90;;;;;;;11.33;39.66;99939.59;5015319;28;20233;-68
2022/03/02 08:09:02;;;;;;;15.80;9.03;;;;;;;11.20;43.17;99918.19;5015274;28;20198;-67
2022/03/02 08:11:31;;;;;;;20.07;15.57;;;;;;;11.82;39.78;99929.00;5015719;28;20194;-67
2022/03/02 08:13:59;;;;;;;9.90;8.90;;;;;;;11.88;47.58;99910.41;5015124;28;20266;-67
2022/03/02 08:16:28;;;;;;;8.23;7.43;;;;;;;12.15;38.46;99922.88;5014831;28;20195;-66
2022/03/02 08:18:57;;;;;;;7.47;6.70;;;;;;;12.03;40.44;99900.47;5014671;28;20694;-70
2022/03/02 08:21:27;;;;;;;17.10;8.27;;;;;;;12.47;40.72;99908.09;5015108;28;20666;-68
2022/03/02 08:23:57;;;;;;;7.37;6.67;;;;;;;12.57;41.34;99904.03;5014415;28;20318;-68
2022/03/02 08:26:24;;;;;;;9.93;8.93;;;;;;;12.13;37.23;99895.59;5014805;28;20194;-70
2022/03/02 08:28:55;;;;;;;6.73;6.13;;;;;;;11.99;37.70;99904.56;5015427;28;20193;-71
2022/03/02 08:31:23;;;;;;;12.20;7.50;;;;;;;11.46;39.34;99891.81;5015080;28;20221;-71
2022/03/02 08:33:51;;;;;;;7.63;6.43;;;;;;;10.40;40.39;99892.72;5021184;28;20286;-72
2022/03/02 08:36:22;;;;;;;8.53;7.80;;;;;;;10.11;41.67;99882.13;5034632;28;20198;-70
2022/03/02 08:38:51;;;;;;;12.17;6.30;;;;;;;11.07;44.21;99873.66;5035249;28;20265;-70
2022/03/02 08:41:19;;;;;;;12.80;6.97;;;;;;;11.26;44.87;99874.06;5020929;28;20200;-73
2022/03/02 08:43:46;;;;;;;12.63;7.80;;;;;;;12.26;47.78;99865.59;5014379;28;20607;-74
2022/03/02 08:46:13;;;;;;;18.63;7.43;;;;;;;12.94;46.35;99862.75;5015303;28;20217;-71
2022/03/02 08:48:41;;;;;;;10.20;7.73;;;;;;;13.39;46.02;99865.50;5015282;28;20200;-70
2022/03/02 08:51:09;;;;;;;11.37;5.37;;;;;;;13.18;36.19;99870.19;5014434;28;20197;-70
2022/03/02 08:53:40;;;;;;;6.73;6.07;;;;;;;13.23;41.67;99854.41;5014292;28;20205;-72
2022/03/02 08:56:07;;;;;;;10.00;6.07;;;;;;;14.19;37.89;99855.34;5013467;28;20273;-71
2022/03/02 08:58:34;;;;;;;7.80;6.83;;;;;;;13.99;33.39;99865.25;5014539;28;20198;-73
2022/03/02 09:01:02;;;;;;;6.80;5.37;;;;;;;13.18;33.64;99865.69;5014732;28;20205;-77
2022/03/02 09:03:33;;;;;;;6.20;5.70;;;;;;;11.93;35.82;99846.78;5014024;28;20320;-73
2022/03/02 09:06:03;;;;;;;5.60;5.30;;;;;;;11.60;37.13;99850.19;5013201;28;20315;-71
2022/03/02 09:08:30;;;;;;;10.13;7.27;;;;;;;10.90;39.31;99847.53;5013983;28;20649;-70
2022/03/02 09:10:58;;;;;;;12.67;8.47;;;;;;;11.11;39.41;99844.88;5013863;28;20196;-72
2022/03/02 09:13:25;;;;;;;7.50;6.63;;;;;;;11.39;38.66;99836.94;5013189;28;20254;-70
2022/03/02 09:15:52;;;;;;;7.00;6.50;;;;;;;11.90;36.83;99831.19;5014346;28;20643;-73
2022/03/02 09:18:19;;;;;;;26.13;9.00;;;;;;;11.41;39.97;99818.94;5014024;28;20200;-69
2022/03/02 09:20:50;;;;;;;6.70;6.00;;;;;;;11.94;39.55;99827.13;5013607;28;20718;-71
2022/03/02 09:23:17;;;;;;;49.27;21.23;;;;;;;11.74;38.48;99818.19;5014927;28;20242;-74
2022/03/02 09:25:47;;;;;;;53.07;24.43;;;;;;;11.46;40.11;99825.31;5013681;28;20301;-71
2022/03/02 09:28:15;;;;;;;35.33;15.40;;;;;;;10.86;39.59;99825.84;5013575;28;20199;-72
2022/03/02 09:30:43;;;;;;;11.73;9.37;;;;;;;10.64;40.08;99820.69;5013615;28;20195;-72
2022/03/02 09:33:15;;;;;;;8.60;7.73;;;;;;;9.77;41.46;99810.19;5013660;28;20202;-71
2022/03/02 09:35:44;;;;;;;12.57;8.83;;;;;;;9.87;41.21;99811.56;5014130;28;20269;-70
2022/03/02 09:38:12;;;;;;;14.30;8.43;;;;;;;9.70;41.53;99794.19;5020572;28;20256;-70
2022/03/02 09:40:43;;;;;;;11.57;10.07;;;;;;;9.72;41.70;99799.31;5025084;28;20194;-71
2022/03/02 09:43:19;;;;;;;18.40;7.50;;;;;;;9.54;39.75;99783.75;5013586;28;20223;-70
2022/03/02 09:45:50;;;;;;;10.17;8.43;;;;;;;9.80;40.16;99778.81;5013644;28;20187;-70
2022/03/02 09:48:28;;;;;;;7.27;6.07;;;;;;;10.12;40.43;99767.00;5013691;28;20285;-70
2022/03/02 09:51:00;;;;;;;14.77;6.83;;;;;;;10.34;40.23;99771.34;5013654;28;20229;-70
2022/03/02 09:53:29;;;;;;;19.17;5.20;;;;;;;10.58;39.82;99760.38;5013468;28;20662;-70
2022/03/02 09:55:57;;;;;;;5.33;5.00;;;;;;;10.37;39.04;99765.63;5013239;28;20194;-70
2022/03/02 09:58:27;;;;;;;6.73;4.93;;;;;;;10.43;39.71;99760.44;5013306;28;20264;-71
2022/03/02 10:00:57;;;;;;;9.03;4.40;;;;;;;10.61;40.31;99752.00;5012844;28;20198;-69
2022/03/02 10:03:26;;;;;;;51.33;8.07;;;;;;;10.86;40.38;99739.97;5010312;28;20264;-71
2022/03/02 10:05:54;;;;;;;5.70;5.20;;;;;;;10.59;40.52;99730.94;5012918;28;20193;-72
2022/03/02 10:08:23;;;;;;;43.73;6.67;;;;;;;10.50;41.60;99723.31;5012884;28;20659;-71
2022/03/02 10:10:50;;;;;;;6.37;5.33;;;;;;;10.82;41.18;99722.75;5013095;28;20252;-70
2022/03/02 10:13:19;;;;;;;6.00;5.50;;;;;;;10.64;41.82;99725.06;5012422;28;20201;-72
2022/03/02 10:15:47;;;;;;;5.10;4.70;;;;;;;10.25;41.86;99712.22;5013054;28;20209;-72
2022/03/02 10:18:16;;;;;;;6.67;5.73;;;;;;;10.06;42.95;99715.47;5012474;28;20198;-71
2022/03/02 10:20:49;;;;;;;6.17;5.63;;;;;;;9.76;43.45;99718.38;5012448;28;20198;-72
2022/03/02 10:23:33;;;;;;;5.70;5.20;;;;;;;9.77;44.18;99709.41;5013667;28;20252;-71
2022/03/02 10:26:05;;;;;;;7.13;6.43;;;;;;;9.89;43.79;99703.41;5012802;28;20194;-72
2022/03/02 10:28:38;;;;;;;11.57;6.33;;;;;;;9.94;43.78;99702.84;5012520;28;20185;-71
2022/03/02 10:31:47;;;;;;;5.87;5.57;;;;;;;9.79;43.97;99696.75;5012432;28;20362;-70
2022/03/02 10:34:33;;;;;;;31.10;6.63;;;;;;;9.98;43.25;99697.00;5022248;28;20635;-71
2022/03/02 10:37:09;;;;;;;6.03;5.50;;;;;;;9.79;43.75;99692.28;5022831;28;20194;-70
2022/03/02 10:39:56;;;;;;;6.63;6.23;;;;;;;10.07;43.64;99674.69;5012417;28;20256;-70
2022/03/02 10:42:26;;;;;;;8.03;5.33;;;;;;;10.15;42.81;99671.06;4992656;28;20229;-70
2022/03/02 10:45:12;;;;;;;6.93;5.43;;;;;;;9.97;43.33;99662.69;4992597;28;20585;-70
2022/03/02 10:47:49;;;;;;;5.70;5.20;;;;;;;9.65;43.66;99657.84;4992666;28;20229;-71
2022/03/02 10:50:16;;;;;;;7.43;6.07;;;;;;;9.66;43.46;99664.78;5004358;28;20198;-70
2022/03/02 10:52:47;;;;;;;4.23;3.87;;;;;;;9.55;42.27;99642.22;5012111;28;20232;-69
2022/03/02 10:55:14;;;;;;;11.50;4.40;;;;;;;9.60;42.01;99654.91;5013253;28;20182;-70
2022/03/02 10:57:41;;;;;;;5.83;5.50;;;;;;;9.70;41.82;99650.13;5012552;28;20748;-70
2022/03/02 11:00:13;;;;;;;4.50;4.20;;;;;;;9.84;41.77;99647.44;5012674;28;20626;-70
2022/03/02 11:02:42;;;;;;;16.07;5.40;;;;;;;10.14;41.09;99638.38;5012316;28;20182;-71
2022/03/02 11:05:13;;;;;;;6.80;6.10;;;;;;;10.43;42.02;99637.44;5012194;28;20678;-69
2022/03/02 11:07:41;;;;;;;6.30;4.73;;;;;;;10.34;41.65;99634.09;5012431;28;20259;-69
2022/03/02 11:10:11;;;;;;;6.77;4.93;;;;;;;10.43;41.22;99632.13;5011462;28;20666;-70
2022/03/02 11:12:42;;;;;;;4.50;4.30;;;;;;;10.24;41.95;99619.50;5011873;28;20256;-71
2022/03/02 11:15:10;;;;;;;6.83;5.40;;;;;;;9.85;42.74;99595.22;5011844;28;20276;-70
2022/03/02 11:17:39;;;;;;;6.40;5.20;;;;;;;9.86;43.69;99618.06;5012216;28;20198;-70
2022/03/02 11:20:08;;;;;;;13.80;5.33;;;;;;;10.05;42.48;99612.19;5015640;28;20284;-72
2022/03/02 11:22:38;;;;;;;58.73;10.63;;;;;;;10.23;42.15;99620.50;5015043;28;20194;-71
2022/03/02 11:25:06;;;;;;;7.50;6.17;;;;;;;10.61;41.88;99616.53;5015281;28;20234;-71
2022/03/02 11:27:38;;;;;;;6.73;5.43;;;;;;;10.40;41.67;99605.94;5014489;28;20289;-72
2022/03/02 11:30:09;;;;;;;5.40;4.90;;;;;;;9.94;41.74;99599.38;5013396;28;20186;-72